sensor_id;sensor_type;location;lat;lon;timestamp;P1;durP1;ratioP1;P2;durP2;ratioP2
28577;SDS011;15769;52.248;15.818;2022-12-29T00:02:38;63.90;;;31.77;;
28577;SDS011;15769;52.248;15.818;2022-12-29T00:07:41;35.53;;;16.92;;
28577;SDS011;15769;52.248;15.818;2022-12-29T00:12:43;40.97;;;16.50;;
28577;SDS011;15769;52.248;15.818;2022-12-29T00:18:05;43.00;;;16.30;;
28577;SDS011;15769;52.248;15.818;2022-12-29T00:23:08;25.08;;;10.52;;
28577;SDS011;15769;52.248;15.818;2022-12-29T00:28:30;20.15;;;9.55;;
28577;SDS011;15769;52.248;15.818;2022-12-29T00:33:51;17.00;;;9.48;;
28577;SDS011;15769;52.248;15.818;2022-12-29T00:39:13;15.55;;;9.50;;
28577;SDS011;15769;52.248;15.818;2022-12-29T00:44:39;16.55;;;11.02;;
28577;SDS011;15769;52.248;15.818;2022-12-29T00:49:44;14.20;;;8.63;;
28577;SDS011;15769;52.248;15.818;2022-12-29T00:54:48;14.97;;;9.33;;
28577;SDS011;15769;52.248;15.818;2022-12-29T01:04:53;16.58;;;10.00;;
28577;SDS011;15769;52.248;15.818;2022-12-29T01:09:55;13.10;;;7.90;;
28577;SDS011;15769;52.248;15.818;2022-12-29T01:15:13;12.98;;;6.95;;
28577;SDS011;15769;52.248;15.818;2022-12-29T01:20:16;13.45;;;7.45;;
28577;SDS011;15769;52.248;15.818;2022-12-29T01:25:19;11.77;;;7.35;;
28577;SDS011;15769;52.248;15.818;2022-12-29T01:30:21;11.07;;;6.03;;
28577;SDS011;15769;52.248;15.818;2022-12-29T01:35:24;7.90;;;4.30;;
28577;SDS011;15769;52.248;15.818;2022-12-29T01:40:26;7.90;;;3.97;;
28577;SDS011;15769;52.248;15.818;2022-12-29T01:45:30;7.68;;;3.97;;
28577;SDS011;15769;52.248;15.818;2022-12-29T01:50:40;6.22;;;4.15;;
28577;SDS011;15769;52.248;15.818;2022-12-29T01:55:49;6.22;;;3.70;;
28577;SDS011;15769;52.248;15.818;2022-12-29T02:00:56;6.03;;;3.63;;
28577;SDS011;15769;52.248;15.818;2022-12-29T02:06:05;6.93;;;3.45;;
28577;SDS011;15769;52.248;15.818;2022-12-29T02:11:12;10.52;;;4.70;;
28577;SDS011;15769;52.248;15.818;2022-12-29T02:16:26;7.30;;;4.30;;
28577;SDS011;15769;52.248;15.818;2022-12-29T02:21:41;7.07;;;4.70;;
28577;SDS011;15769;52.248;15.818;2022-12-29T02:32:06;7.05;;;3.80;;
28577;SDS011;15769;52.248;15.818;2022-12-29T02:47:35;8.63;;;4.38;;
28577;SDS011;15769;52.248;15.818;2022-12-29T02:52:49;4.45;;;3.28;;
28577;SDS011;15769;52.248;15.818;2022-12-29T03:03:38;6.10;;;3.38;;
28577;SDS011;15769;52.248;15.818;2022-12-29T03:09:05;4.20;;;3.22;;
28577;SDS011;15769;52.248;15.818;2022-12-29T03:14:32;4.68;;;3.15;;
28577;SDS011;15769;52.248;15.818;2022-12-29T03:19:57;3.83;;;2.83;;
28577;SDS011;15769;52.248;15.818;2022-12-29T03:25:05;7.15;;;3.78;;
28577;SDS011;15769;52.248;15.818;2022-12-29T03:30:14;4.30;;;3.28;;
28577;SDS011;15769;52.248;15.818;2022-12-29T03:35:19;4.35;;;3.00;;
28577;SDS011;15769;52.248;15.818;2022-12-29T03:40:24;4.55;;;2.88;;
28577;SDS011;15769;52.248;15.818;2022-12-29T03:45:28;4.65;;;3.08;;
28577;SDS011;15769;52.248;15.818;2022-12-29T03:50:31;2.92;;;2.42;;
28577;SDS011;15769;52.248;15.818;2022-12-29T03:55:34;6.88;;;3.83;;
28577;SDS011;15769;52.248;15.818;2022-12-29T04:00:37;4.63;;;3.20;;
28577;SDS011;15769;52.248;15.818;2022-12-29T04:05:39;4.45;;;2.60;;
28577;SDS011;15769;52.248;15.818;2022-12-29T04:10:42;5.55;;;3.35;;
28577;SDS011;15769;52.248;15.818;2022-12-29T04:15:46;5.83;;;3.77;;
28577;SDS011;15769;52.248;15.818;2022-12-29T04:20:49;6.07;;;3.50;;
28577;SDS011;15769;52.248;15.818;2022-12-29T04:26:08;7.40;;;3.83;;
28577;SDS011;15769;52.248;15.818;2022-12-29T04:31:25;7.45;;;4.05;;
28577;SDS011;15769;52.248;15.818;2022-12-29T04:36:28;6.05;;;3.65;;
28577;SDS011;15769;52.248;15.818;2022-12-29T04:41:32;7.65;;;3.80;;
28577;SDS011;15769;52.248;15.818;2022-12-29T04:46:36;7.70;;;3.67;;
28577;SDS011;15769;52.248;15.818;2022-12-29T04:51:53;5.57;;;3.00;;
28577;SDS011;15769;52.248;15.818;2022-12-29T04:56:56;4.72;;;3.38;;
28577;SDS011;15769;52.248;15.818;2022-12-29T05:01:59;9.03;;;5.43;;
28577;SDS011;15769;52.248;15.818;2022-12-29T05:07:02;7.07;;;5.53;;
28577;SDS011;15769;52.248;15.818;2022-12-29T05:12:04;9.35;;;8.20;;
28577;SDS011;15769;52.248;15.818;2022-12-29T05:17:09;5.00;;;4.50;;
28577;SDS011;15769;52.248;15.818;2022-12-29T05:22:11;4.68;;;3.40;;
28577;SDS011;15769;52.248;15.818;2022-12-29T05:27:16;3.97;;;2.92;;
28577;SDS011;15769;52.248;15.818;2022-12-29T05:32:23;4.53;;;2.95;;
28577;SDS011;15769;52.248;15.818;2022-12-29T05:37:27;5.40;;;3.63;;
28577;SDS011;15769;52.248;15.818;2022-12-29T05:42:30;4.60;;;3.13;;
28577;SDS011;15769;52.248;15.818;2022-12-29T05:47:47;4.60;;;3.28;;
28577;SDS011;15769;52.248;15.818;2022-12-29T05:53:03;4.32;;;3.05;;
28577;SDS011;15769;52.248;15.818;2022-12-29T05:58:06;3.88;;;2.92;;
28577;SDS011;15769;52.248;15.818;2022-12-29T06:03:10;6.53;;;3.80;;
28577;SDS011;15769;52.248;15.818;2022-12-29T06:08:13;5.20;;;3.15;;
28577;SDS011;15769;52.248;15.818;2022-12-29T06:13:16;5.90;;;3.45;;
28577;SDS011;15769;52.248;15.818;2022-12-29T06:18:20;5.45;;;3.30;;
28577;SDS011;15769;52.248;15.818;2022-12-29T06:23:22;5.57;;;3.53;;
28577;SDS011;15769;52.248;15.818;2022-12-29T06:28:26;5.72;;;2.97;;
28577;SDS011;15769;52.248;15.818;2022-12-29T06:33:29;5.07;;;3.70;;
28577;SDS011;15769;52.248;15.818;2022-12-29T06:38:32;6.50;;;4.13;;
28577;SDS011;15769;52.248;15.818;2022-12-29T06:43:35;4.60;;;3.28;;
28577;SDS011;15769;52.248;15.818;2022-12-29T06:48:54;5.20;;;3.40;;
28577;SDS011;15769;52.248;15.818;2022-12-29T06:53:56;5.13;;;3.28;;
28577;SDS011;15769;52.248;15.818;2022-12-29T06:58:59;4.07;;;3.08;;
28577;SDS011;15769;52.248;15.818;2022-12-29T07:04:03;4.95;;;2.97;;
28577;SDS011;15769;52.248;15.818;2022-12-29T07:09:06;5.30;;;3.25;;
28577;SDS011;15769;52.248;15.818;2022-12-29T07:14:11;6.05;;;4.05;;
28577;SDS011;15769;52.248;15.818;2022-12-29T07:19:13;6.57;;;3.80;;
28577;SDS011;15769;52.248;15.818;2022-12-29T07:24:16;5.23;;;3.80;;
28577;SDS011;15769;52.248;15.818;2022-12-29T07:29:19;13.77;;;9.23;;
28577;SDS011;15769;52.248;15.818;2022-12-29T07:34:22;6.78;;;4.63;;
28577;SDS011;15769;52.248;15.818;2022-12-29T07:39:28;8.23;;;4.60;;
28577;SDS011;15769;52.248;15.818;2022-12-29T07:44:31;7.93;;;4.10;;
28577;SDS011;15769;52.248;15.818;2022-12-29T07:49:55;4.07;;;3.00;;
28577;SDS011;15769;52.248;15.818;2022-12-29T07:55:07;7.63;;;4.57;;
28577;SDS011;15769;52.248;15.818;2022-12-29T08:00:26;6.75;;;4.38;;
28577;SDS011;15769;52.248;15.818;2022-12-29T08:05:32;9.70;;;7.30;;
28577;SDS011;15769;52.248;15.818;2022-12-29T08:10:36;7.80;;;5.38;;
28577;SDS011;15769;52.248;15.818;2022-12-29T08:20:42;5.28;;;2.67;;
28577;SDS011;15769;52.248;15.818;2022-12-29T08:25:58;6.57;;;3.35;;
28577;SDS011;15769;52.248;15.818;2022-12-29T08:31:02;5.05;;;3.58;;
28577;SDS011;15769;52.248;15.818;2022-12-29T08:41:33;4.95;;;3.42;;
28577;SDS011;15769;52.248;15.818;2022-12-29T08:46:39;4.63;;;3.08;;
28577;SDS011;15769;52.248;15.818;2022-12-29T08:51:43;4.68;;;2.97;;
28577;SDS011;15769;52.248;15.818;2022-12-29T08:56:48;6.22;;;3.78;;
28577;SDS011;15769;52.248;15.818;2022-12-29T09:02:10;7.22;;;3.67;;
28577;SDS011;15769;52.248;15.818;2022-12-29T09:07:19;6.95;;;2.80;;
28577;SDS011;15769;52.248;15.818;2022-12-29T09:12:22;7.60;;;3.83;;
28577;SDS011;15769;52.248;15.818;2022-12-29T09:17:25;9.15;;;5.43;;
28577;SDS011;15769;52.248;15.818;2022-12-29T09:23:08;10.52;;;6.82;;
28577;SDS011;15769;52.248;15.818;2022-12-29T09:28:19;26.30;;;15.63;;
28577;SDS011;15769;52.248;15.818;2022-12-29T09:33:23;46.00;;;23.08;;
28577;SDS011;15769;52.248;15.818;2022-12-29T09:38:38;23.15;;;14.70;;
28577;SDS011;15769;52.248;15.818;2022-12-29T09:49:57;36.47;;;17.20;;
28577;SDS011;15769;52.248;15.818;2022-12-29T09:55:16;34.10;;;16.85;;
28577;SDS011;15769;52.248;15.818;2022-12-29T10:00:40;30.55;;;21.75;;
28577;SDS011;15769;52.248;15.818;2022-12-29T10:06:17;26.30;;;13.60;;
28577;SDS011;15769;52.248;15.818;2022-12-29T10:16:56;38.95;;;16.60;;
28577;SDS011;15769;52.248;15.818;2022-12-29T10:27:44;44.97;;;20.55;;
28577;SDS011;15769;52.248;15.818;2022-12-29T10:33:05;22.50;;;10.75;;
28577;SDS011;15769;52.248;15.818;2022-12-29T10:43:30;10.68;;;6.75;;
28577;SDS011;15769;52.248;15.818;2022-12-29T10:48:43;13.00;;;7.60;;
28577;SDS011;15769;52.248;15.818;2022-12-29T11:00:31;11.10;;;8.30;;
28577;SDS011;15769;52.248;15.818;2022-12-29T11:05:38;10.88;;;6.63;;
28577;SDS011;15769;52.248;15.818;2022-12-29T11:12:21;13.85;;;8.50;;
28577;SDS011;15769;52.248;15.818;2022-12-29T11:30:21;11.38;;;7.70;;
28577;SDS011;15769;52.248;15.818;2022-12-29T11:40:44;46.97;;;25.90;;
28577;SDS011;15769;52.248;15.818;2022-12-29T11:45:46;22.15;;;14.55;;
28577;SDS011;15769;52.248;15.818;2022-12-29T11:52:28;14.98;;;11.13;;
28577;SDS011;15769;52.248;15.818;2022-12-29T11:57:59;11.35;;;7.53;;
28577;SDS011;15769;52.248;15.818;2022-12-29T12:09:54;13.35;;;7.22;;
28577;SDS011;15769;52.248;15.818;2022-12-29T12:21:13;8.85;;;5.90;;
28577;SDS011;15769;52.248;15.818;2022-12-29T12:26:52;4.50;;;3.42;;
28577;SDS011;15769;52.248;15.818;2022-12-29T12:45:22;10.80;;;5.63;;
28577;SDS011;15769;52.248;15.818;2022-12-29T13:10:29;19.35;;;8.57;;
28577;SDS011;15769;52.248;15.818;2022-12-29T13:39:01;70.70;;;27.77;;
28577;SDS011;15769;52.248;15.818;2022-12-29T13:50:55;53.42;;;25.60;;
28577;SDS011;15769;52.248;15.818;2022-12-29T13:56:12;36.70;;;20.83;;
28577;SDS011;15769;52.248;15.818;2022-12-29T14:07:57;36.45;;;20.25;;
28577;SDS011;15769;52.248;15.818;2022-12-29T14:19:51;24.75;;;14.27;;
28577;SDS011;15769;52.248;15.818;2022-12-29T14:24:55;30.88;;;15.30;;
28577;SDS011;15769;52.248;15.818;2022-12-29T14:29:58;88.47;;;45.10;;
28577;SDS011;15769;52.248;15.818;2022-12-29T14:41:40;164.13;;;74.20;;
28577;SDS011;15769;52.248;15.818;2022-12-29T14:46:46;194.43;;;90.97;;
28577;SDS011;15769;52.248;15.818;2022-12-29T15:03:14;93.38;;;47.75;;
28577;SDS011;15769;52.248;15.818;2022-12-29T15:08:21;88.60;;;45.88;;
28577;SDS011;15769;52.248;15.818;2022-12-29T15:19:46;44.13;;;26.27;;
28577;SDS011;15769;52.248;15.818;2022-12-29T15:25:50;26.35;;;15.55;;
28577;SDS011;15769;52.248;15.818;2022-12-29T15:31:19;22.35;;;14.32;;
28577;SDS011;15769;52.248;15.818;2022-12-29T15:36:42;32.53;;;18.80;;
28577;SDS011;15769;52.248;15.818;2022-12-29T15:42:52;47.23;;;25.43;;
28577;SDS011;15769;52.248;15.818;2022-12-29T15:48:18;36.45;;;20.52;;
28577;SDS011;15769;52.248;15.818;2022-12-29T15:53:32;70.18;;;37.17;;
28577;SDS011;15769;52.248;15.818;2022-12-29T15:58:42;118.88;;;56.38;;
28577;SDS011;15769;52.248;15.818;2022-12-29T16:04:10;189.25;;;80.47;;
28577;SDS011;15769;52.248;15.818;2022-12-29T16:15:14;129.90;;;56.00;;
28577;SDS011;15769;52.248;15.818;2022-12-29T16:27:26;105.43;;;39.67;;
28577;SDS011;15769;52.248;15.818;2022-12-29T16:33:04;68.05;;;25.83;;
28577;SDS011;15769;52.248;15.818;2022-12-29T16:38:13;53.00;;;22.20;;
28577;SDS011;15769;52.248;15.818;2022-12-29T16:50:12;46.50;;;22.42;;
28577;SDS011;15769;52.248;15.818;2022-12-29T16:56:24;67.10;;;32.40;;
28577;SDS011;15769;52.248;15.818;2022-12-29T17:02:30;144.43;;;71.68;;
28577;SDS011;15769;52.248;15.818;2022-12-29T17:20:28;73.05;;;41.88;;
28577;SDS011;15769;52.248;15.818;2022-12-29T17:26:01;53.03;;;30.05;;
28577;SDS011;15769;52.248;15.818;2022-12-29T17:31:30;37.45;;;23.58;;
28577;SDS011;15769;52.248;15.818;2022-12-29T17:42:43;37.28;;;25.05;;
28577;SDS011;15769;52.248;15.818;2022-12-29T17:47:49;37.60;;;23.27;;
28577;SDS011;15769;52.248;15.818;2022-12-29T17:52:54;78.97;;;33.00;;
28577;SDS011;15769;52.248;15.818;2022-12-29T18:03:44;51.58;;;23.65;;
28577;SDS011;15769;52.248;15.818;2022-12-29T18:08:53;59.05;;;24.90;;
28577;SDS011;15769;52.248;15.818;2022-12-29T18:14:02;51.38;;;24.63;;
28577;SDS011;15769;52.248;15.818;2022-12-29T18:19:45;50.63;;;26.63;;
28577;SDS011;15769;52.248;15.818;2022-12-29T18:24:48;50.75;;;30.20;;
28577;SDS011;15769;52.248;15.818;2022-12-29T18:29:54;47.35;;;26.30;;
28577;SDS011;15769;52.248;15.818;2022-12-29T18:35:05;63.75;;;28.92;;
28577;SDS011;15769;52.248;15.818;2022-12-29T18:40:28;66.45;;;29.08;;
28577;SDS011;15769;52.248;15.818;2022-12-29T18:52:27;128.18;;;52.78;;
28577;SDS011;15769;52.248;15.818;2022-12-29T18:57:16;118.03;;;50.63;;
28577;SDS011;15769;52.248;15.818;2022-12-29T19:02:25;139.60;;;52.78;;
28577;SDS011;15769;52.248;15.818;2022-12-29T19:07:32;144.32;;;54.90;;
28577;SDS011;15769;52.248;15.818;2022-12-29T19:19:08;103.75;;;42.95;;
28577;SDS011;15769;52.248;15.818;2022-12-29T19:24:57;104.18;;;52.20;;
28577;SDS011;15769;52.248;15.818;2022-12-29T19:30:33;100.82;;;49.83;;
28577;SDS011;15769;52.248;15.818;2022-12-29T19:35:42;72.85;;;34.72;;
28577;SDS011;15769;52.248;15.818;2022-12-29T19:40:51;55.50;;;25.10;;
28577;SDS011;15769;52.248;15.818;2022-12-29T19:45:56;56.97;;;26.70;;
28577;SDS011;15769;52.248;15.818;2022-12-29T19:51:21;59.97;;;26.38;;
28577;SDS011;15769;52.248;15.818;2022-12-29T19:56:30;36.80;;;18.63;;
28577;SDS011;15769;52.248;15.818;2022-12-29T20:01:57;39.08;;;18.45;;
28577;SDS011;15769;52.248;15.818;2022-12-29T20:07:15;50.45;;;25.70;;
28577;SDS011;15769;52.248;15.818;2022-12-29T20:12:25;33.53;;;16.13;;
28577;SDS011;15769;52.248;15.818;2022-12-29T20:17:54;25.90;;;13.02;;
28577;SDS011;15769;52.248;15.818;2022-12-29T20:23:17;25.25;;;12.38;;
28577;SDS011;15769;52.248;15.818;2022-12-29T20:28:20;28.15;;;13.88;;
28577;SDS011;15769;52.248;15.818;2022-12-29T20:33:24;32.23;;;15.07;;
28577;SDS011;15769;52.248;15.818;2022-12-29T20:38:27;23.80;;;12.30;;
28577;SDS011;15769;52.248;15.818;2022-12-29T20:43:30;30.80;;;14.48;;
28577;SDS011;15769;52.248;15.818;2022-12-29T20:48:32;32.83;;;16.40;;
28577;SDS011;15769;52.248;15.818;2022-12-29T20:53:35;36.63;;;17.80;;
28577;SDS011;15769;52.248;15.818;2022-12-29T21:10:48;27.90;;;14.30;;
28577;SDS011;15769;52.248;15.818;2022-12-29T21:16:25;28.60;;;14.27;;
28577;SDS011;15769;52.248;15.818;2022-12-29T21:46:28;22.80;;;11.57;;
28577;SDS011;15769;52.248;15.818;2022-12-29T21:51:49;30.50;;;14.45;;
28577;SDS011;15769;52.248;15.818;2022-12-29T21:56:54;46.78;;;19.65;;
28577;SDS011;15769;52.248;15.818;2022-12-29T22:02:00;54.78;;;22.17;;
28577;SDS011;15769;52.248;15.818;2022-12-29T22:07:23;78.28;;;29.10;;
28577;SDS011;15769;52.248;15.818;2022-12-29T22:18:07;79.25;;;38.80;;
28577;SDS011;15769;52.248;15.818;2022-12-29T22:29:19;104.47;;;42.70;;
28577;SDS011;15769;52.248;15.818;2022-12-29T22:34:54;53.17;;;23.13;;
28577;SDS011;15769;52.248;15.818;2022-12-29T22:40:02;40.50;;;18.13;;
28577;SDS011;15769;52.248;15.818;2022-12-29T22:45:12;44.88;;;23.33;;
28577;SDS011;15769;52.248;15.818;2022-12-29T22:50:33;26.42;;;13.68;;
28577;SDS011;15769;52.248;15.818;2022-12-29T22:55:43;64.78;;;21.63;;
28577;SDS011;15769;52.248;15.818;2022-12-29T23:00:47;88.28;;;25.90;;
28577;SDS011;15769;52.248;15.818;2022-12-29T23:11:16;90.43;;;26.52;;
28577;SDS011;15769;52.248;15.818;2022-12-29T23:29:40;44.70;;;16.33;;
28577;SDS011;15769;52.248;15.818;2022-12-29T23:40:44;38.03;;;12.23;;
28577;SDS011;15769;52.248;15.818;2022-12-29T23:45:59;40.65;;;13.88;;
28577;SDS011;15769;52.248;15.818;2022-12-29T23:57:30;25.70;;;11.10;;
